createdAt,value
2019-04-25T00:00:13.075Z,17.06
2019-04-25T00:02:45.511Z,17.14
2019-04-25T00:05:13.905Z,17.24
2019-04-25T00:07:47.127Z,17.25
2019-04-25T00:10:15.741Z,17.24
2019-04-25T00:12:53.949Z,17.16
2019-04-25T00:15:23.040Z,17.12
2019-04-25T00:17:55.465Z,17.06
2019-04-25T00:20:23.126Z,17.05
2019-04-25T00:23:03.549Z,17.05
2019-04-25T00:25:44.401Z,16.88
2019-04-25T00:28:28.560Z,16.73
2019-04-25T00:30:57.041Z,16.63
2019-04-25T00:33:25.416Z,16.61
2019-04-25T00:35:54.374Z,16.58
2019-04-25T00:38:29.811Z,16.26
2019-04-25T00:40:56.430Z,16.19
2019-04-25T00:43:31.456Z,16.22
2019-04-25T00:45:58.725Z,16.18
2019-04-25T00:48:27.130Z,16.29
2019-04-25T00:50:55.514Z,16.29
2019-04-25T00:53:26.388Z,16.29
2019-04-25T00:55:58.842Z,16.26
2019-04-25T00:58:34.916Z,16.10
2019-04-25T01:01:04.967Z,16.12
2019-04-25T01:03:44.273Z,16.08
2019-04-25T01:06:16.007Z,16.12
2019-04-25T01:08:51.817Z,15.99
2019-04-25T01:11:23.679Z,15.89
2019-04-25T01:13:50.440Z,15.87
2019-04-25T01:16:20.016Z,15.85
2019-04-25T01:18:49.471Z,15.71
2019-04-25T01:21:18.691Z,15.84
2019-04-25T01:23:47.347Z,15.93
2019-04-25T01:26:18.249Z,15.86
2019-04-25T01:28:51.887Z,15.71
2019-04-25T01:31:24.945Z,15.85
2019-04-25T01:33:54.602Z,15.72
2019-04-25T01:36:41.863Z,15.62
2019-04-25T01:39:14.364Z,15.61
2019-04-25T01:42:01.106Z,15.62
2019-04-25T01:44:34.688Z,15.60
2019-04-25T01:47:04.488Z,15.44
2019-04-25T01:49:33.953Z,15.18
2019-04-25T01:52:03.560Z,14.90
2019-04-25T01:54:33.829Z,14.83
2019-04-25T01:57:05.046Z,14.75
2019-04-25T01:59:33.874Z,14.70
2019-04-25T02:02:03.803Z,14.58
2019-04-25T02:04:34.151Z,14.59
2019-04-25T02:07:03.613Z,14.57
2019-04-25T02:09:36.471Z,14.48
2019-04-25T02:12:13.470Z,14.33
2019-04-25T02:14:43.571Z,14.25
2019-04-25T02:17:16.225Z,14.11
2019-04-25T02:19:44.615Z,13.97
2019-04-25T02:22:14.537Z,13.91
2019-04-25T02:24:46.993Z,13.91
2019-04-25T02:27:20.350Z,13.99
2019-04-25T02:29:53.392Z,14.04
2019-04-25T02:32:21.469Z,14.06
2019-04-25T02:34:55.265Z,14.06
2019-04-25T02:37:25.482Z,14.07
2019-04-25T02:39:56.651Z,13.91
2019-04-25T02:42:25.033Z,13.79
2019-04-25T02:45:00.151Z,13.99
2019-04-25T02:47:50.883Z,13.72
2019-04-25T02:50:48.142Z,13.72
2019-04-25T02:53:18.172Z,13.71
2019-04-25T02:55:49.100Z,13.63
2019-04-25T02:58:24.264Z,13.65
2019-04-25T03:03:44.748Z,13.54
2019-04-25T03:06:14.927Z,13.53
2019-04-25T03:08:44.925Z,13.86
2019-04-25T03:11:18.481Z,13.77
2019-04-25T03:13:49.559Z,13.58
2019-04-25T03:16:21.577Z,13.46
2019-04-25T03:18:57.938Z,13.52
2019-04-25T03:21:35.247Z,13.43
2019-04-25T03:24:06.161Z,13.42
2019-04-25T03:26:40.611Z,13.46
2019-04-25T03:29:10.403Z,13.59
2019-04-25T03:31:44.716Z,13.63
2019-04-25T03:34:20.283Z,13.65
2019-04-25T03:36:45.060Z,13.75
2019-04-25T03:39:16.303Z,13.52
2019-04-25T03:41:43.858Z,13.55
2019-04-25T03:44:13.997Z,13.39
2019-04-25T03:46:43.808Z,13.35
2019-04-25T03:49:13.942Z,13.19
2019-04-25T03:51:45.060Z,13.09
2019-04-25T03:54:14.278Z,12.94
2019-04-25T03:56:53.545Z,12.78
2019-04-25T03:59:16.099Z,12.95
2019-04-25T04:01:44.625Z,12.58
2019-04-25T04:04:16.218Z,12.69
2019-04-25T04:06:44.254Z,12.42
2019-04-25T04:09:17.559Z,12.43
2019-04-25T04:11:53.464Z,12.47
2019-04-25T04:14:23.827Z,12.39
2019-04-25T04:17:16.124Z,12.33
2019-04-25T04:19:46.180Z,12.19
2019-04-25T04:22:18.754Z,12.11
2019-04-25T04:24:48.049Z,12.13
2019-04-25T04:27:21.730Z,12.05
2019-04-25T04:29:50.122Z,11.94
2019-04-25T04:32:18.541Z,11.99
2019-04-25T04:34:47.001Z,12.01
2019-04-25T04:37:23.622Z,11.95
2019-04-25T04:39:54.329Z,11.95
2019-04-25T04:42:25.184Z,11.92
2019-04-25T04:44:53.646Z,11.87
2019-04-25T04:47:25.546Z,11.84
2019-04-25T04:49:54.151Z,11.80
2019-04-25T04:52:25.220Z,11.78
2019-04-25T04:55:03.692Z,11.82
2019-04-25T04:57:32.569Z,11.88
2019-04-25T05:00:03.675Z,11.95
2019-04-25T05:02:39.350Z,12.00
2019-04-25T05:05:09.503Z,11.94
2019-04-25T05:07:45.529Z,11.93
2019-04-25T05:10:16.511Z,11.86
2019-04-25T05:12:44.070Z,12.04
2019-04-25T05:15:16.231Z,12.08
2019-04-25T05:17:44.144Z,12.18
2019-04-25T05:20:20.575Z,12.43
2019-04-25T05:22:54.907Z,12.56
2019-04-25T05:25:24.746Z,12.60
2019-04-25T05:28:00.747Z,12.64
2019-04-25T05:30:26.519Z,12.80
2019-04-25T05:32:54.490Z,12.94
2019-04-25T05:35:24.335Z,13.07
2019-04-25T05:37:54.056Z,13.08
2019-04-25T05:40:24.134Z,13.28
2019-04-25T05:42:59.311Z,13.27
2019-04-25T05:45:31.697Z,13.51
2019-04-25T05:48:06.015Z,13.53
2019-04-25T05:50:35.566Z,13.62
2019-04-25T05:53:04.388Z,13.66
2019-04-25T05:55:35.398Z,13.83
2019-04-25T05:58:04.102Z,14.47
2019-04-25T06:00:34.027Z,14.66
2019-04-25T06:03:03.560Z,14.88
2019-04-25T06:05:34.760Z,15.17
2019-04-25T06:08:05.615Z,15.35
2019-04-25T06:10:41.553Z,15.42
2019-04-25T06:13:28.513Z,15.83
2019-04-25T06:16:03.561Z,15.98
2019-04-25T06:18:33.861Z,16.29
2019-04-25T06:21:05.869Z,16.71
2019-04-25T06:23:44.336Z,17.21
2019-04-25T06:26:26.751Z,18.04
2019-04-25T06:28:53.817Z,18.67
2019-04-25T06:31:17.391Z,19.19
2019-04-25T06:33:45.908Z,18.74
2019-04-25T06:36:14.368Z,18.02
2019-04-25T06:38:44.354Z,18.22
2019-04-25T06:41:15.361Z,18.76
2019-04-25T06:43:45.418Z,19.45
2019-04-25T06:46:26.847Z,20.27
2019-04-25T06:49:05.063Z,20.37
2019-04-25T06:51:50.442Z,20.34
2019-04-25T06:54:25.393Z,21.10
2019-04-25T06:56:53.625Z,20.43
2019-04-25T06:59:25.907Z,20.40
2019-04-25T07:01:54.086Z,19.94
2019-04-25T07:04:26.257Z,19.64
2019-04-25T07:06:53.660Z,19.99
2019-04-25T07:09:24.417Z,19.68
2019-04-25T07:11:53.753Z,20.29
2019-04-25T07:14:24.558Z,20.97
2019-04-25T07:16:53.275Z,21.48
2019-04-25T07:19:25.019Z,21.53
2019-04-25T07:21:54.511Z,22.57
2019-04-25T07:24:24.818Z,22.27
2019-04-25T07:27:11.531Z,22.79
2019-04-25T07:29:59.863Z,22.78
2019-04-25T07:32:35.692Z,21.79
2019-04-25T07:35:05.885Z,22.48
2019-04-25T07:37:37.108Z,22.78
2019-04-25T07:40:08.591Z,21.93
2019-04-25T07:42:39.189Z,23.32
2019-04-25T07:45:11.707Z,23.44
2019-04-25T07:47:44.131Z,23.18
2019-04-25T07:50:16.833Z,22.78
2019-04-25T07:52:45.242Z,23.29
2019-04-25T07:55:13.877Z,23.44
2019-04-25T07:57:44.707Z,23.79
2019-04-25T08:00:15.354Z,24.50
2019-04-25T08:02:43.918Z,24.56
2019-04-25T08:05:14.991Z,24.63
2019-04-25T08:07:50.847Z,23.88
2019-04-25T08:10:23.952Z,24.58
2019-04-25T08:12:53.668Z,23.83
2019-04-25T08:15:33.519Z,23.86
2019-04-25T08:18:08.424Z,25.05
2019-04-25T08:20:37.163Z,25.12
2019-04-25T08:23:07.164Z,24.29
2019-04-25T08:25:37.848Z,23.66
2019-04-25T08:28:10.580Z,23.29
2019-04-25T08:30:41.788Z,22.76
2019-04-25T08:33:14.242Z,22.35
2019-04-25T08:36:03.427Z,22.53
2019-04-25T08:38:16.924Z,22.01
2019-04-25T08:40:45.315Z,22.17
2019-04-25T08:43:14.690Z,22.22
2019-04-25T08:45:44.285Z,21.58
2019-04-25T08:48:13.593Z,20.99
2019-04-25T08:50:44.520Z,21.23
2019-04-25T08:53:13.699Z,21.14
2019-04-25T08:55:45.737Z,20.08
2019-04-25T08:58:32.694Z,20.61
2019-04-25T09:01:20.994Z,20.60
2019-04-25T09:04:09.767Z,20.78
2019-04-25T09:06:44.257Z,20.79
2019-04-25T09:09:15.535Z,20.37
2019-04-25T09:11:46.909Z,20.03
2019-04-25T09:14:20.604Z,20.38
2019-04-25T09:16:48.987Z,20.56
2019-04-25T09:19:20.246Z,20.58
2019-04-25T09:21:51.105Z,20.73
2019-04-25T09:24:24.415Z,20.88
2019-04-25T09:26:54.204Z,21.23
2019-04-25T09:29:24.649Z,21.19
2019-04-25T09:31:53.772Z,21.18
2019-04-25T09:34:23.704Z,20.82
2019-04-25T09:36:53.631Z,20.37
2019-04-25T09:39:26.209Z,20.70
2019-04-25T09:41:54.588Z,20.96
2019-04-25T09:44:26.024Z,21.05
2019-04-25T09:46:54.393Z,20.82
2019-04-25T09:49:24.439Z,20.72
2019-04-25T09:51:54.476Z,20.60
2019-04-25T09:54:31.175Z,21.06
2019-04-25T09:57:06.735Z,21.33
2019-04-25T09:59:36.229Z,21.33
2019-04-25T10:02:06.326Z,21.50
2019-04-25T10:04:34.732Z,21.06
2019-04-25T10:07:05.026Z,21.23
2019-04-25T10:09:37.188Z,21.35
2019-04-25T10:12:05.953Z,21.81
2019-04-25T10:14:48.848Z,21.56
2019-04-25T10:17:16.003Z,21.56
2019-04-25T10:19:45.614Z,22.02
2019-04-25T10:22:21.290Z,22.02
2019-04-25T10:24:59.993Z,22.16
2019-04-25T10:27:19.709Z,22.26
2019-04-25T10:29:53.668Z,22.38
2019-04-25T10:32:23.766Z,22.55
2019-04-25T10:34:54.344Z,22.55
2019-04-25T10:37:22.728Z,22.19
2019-04-25T10:39:51.476Z,22.27
2019-04-25T10:42:20.925Z,22.62
2019-04-25T10:44:50.473Z,22.68
2019-04-25T10:47:18.829Z,22.26
2019-04-25T10:49:48.249Z,22.31
2019-04-25T10:52:20.914Z,22.40
2019-04-25T10:54:54.264Z,22.65
2019-04-25T10:57:24.786Z,22.83
2019-04-25T11:00:05.629Z,22.93
2019-04-25T11:02:23.650Z,22.89
2019-04-25T11:04:54.526Z,23.06
2019-04-25T11:07:28.703Z,22.83
2019-04-25T11:09:58.206Z,22.97
2019-04-25T11:12:27.677Z,23.23
2019-04-25T11:14:58.620Z,23.16
2019-04-25T11:17:27.624Z,23.21
2019-04-25T11:20:05.527Z,23.13
2019-04-25T11:22:34.279Z,23.28
2019-04-25T11:25:05.164Z,22.80
2019-04-25T11:27:33.996Z,23.31
2019-04-25T11:30:10.922Z,23.39
2019-04-25T11:32:36.110Z,23.04
2019-04-25T11:35:07.770Z,23.52
2019-04-25T11:37:37.196Z,23.85
2019-04-25T11:40:14.417Z,23.91
2019-04-25T11:42:45.921Z,24.00
2019-04-25T11:45:14.641Z,24.18
2019-04-25T11:47:49.575Z,24.01
2019-04-25T11:50:21.840Z,24.18
2019-04-25T11:52:50.503Z,24.00
2019-04-25T11:55:30.347Z,24.02
2019-04-25T11:58:17.256Z,23.79
2019-04-25T12:00:47.115Z,23.94
2019-04-25T12:03:15.712Z,23.86
2019-04-25T12:05:45.844Z,24.11
2019-04-25T12:08:14.488Z,24.10
2019-04-25T12:10:47.874Z,24.08
2019-04-25T12:13:18.898Z,24.41
2019-04-25T12:15:54.832Z,24.47
2019-04-25T12:18:23.497Z,24.76
2019-04-25T12:20:51.874Z,25.01
2019-04-25T12:23:23.365Z,25.04
2019-04-25T12:25:54.046Z,24.81
2019-04-25T12:28:23.519Z,24.87
2019-04-25T12:30:54.698Z,24.56
2019-04-25T12:33:25.866Z,24.43
2019-04-25T12:35:54.175Z,24.88
2019-04-25T12:38:26.239Z,24.70
2019-04-25T12:40:55.327Z,24.49
2019-04-25T12:43:31.142Z,24.71
2019-04-25T12:46:08.055Z,25.08
2019-04-25T12:48:36.441Z,24.94
2019-04-25T12:51:07.429Z,25.15
2019-04-25T12:53:36.268Z,24.50
2019-04-25T12:56:04.722Z,24.55
2019-04-25T12:58:33.510Z,24.40
2019-04-25T13:01:09.650Z,24.65
2019-04-25T13:03:38.013Z,24.95
2019-04-25T13:06:13.652Z,25.05
2019-04-25T13:08:44.102Z,25.16
2019-04-25T13:11:13.955Z,25.15
2019-04-25T13:13:43.621Z,25.20
2019-04-25T13:16:14.207Z,25.00
2019-04-25T13:18:42.603Z,25.04
2019-04-25T13:21:14.520Z,25.18
2019-04-25T13:23:45.604Z,25.33
2019-04-25T13:26:16.715Z,25.14
2019-04-25T13:29:05.161Z,25.42
2019-04-25T13:31:41.553Z,25.24
2019-04-25T13:34:15.317Z,24.93
2019-04-25T13:36:44.294Z,24.86
2019-04-25T13:39:19.438Z,24.83
2019-04-25T13:41:54.352Z,24.88
2019-04-25T13:44:24.423Z,25.14
2019-04-25T13:46:56.399Z,25.20
2019-04-25T13:49:25.062Z,25.08
2019-04-25T13:51:53.486Z,25.15
2019-04-25T13:54:25.047Z,25.09
2019-04-25T13:56:54.719Z,25.03
2019-04-25T13:59:25.736Z,24.91
2019-04-25T14:01:57.724Z,24.78
2019-04-25T14:04:28.323Z,24.63
2019-04-25T14:06:59.148Z,24.89
2019-04-25T14:09:30.484Z,24.68
2019-04-25T14:12:04.020Z,24.83
2019-04-25T14:14:41.436Z,24.54
2019-04-25T14:17:29.672Z,24.62
2019-04-25T14:20:14.114Z,24.86
2019-04-25T14:22:45.359Z,24.90
2019-04-25T14:25:14.932Z,25.01
2019-04-25T14:27:44.549Z,24.80
2019-04-25T14:30:14.757Z,24.80
2019-04-25T14:32:43.562Z,24.90
2019-04-25T14:35:12.290Z,24.75
2019-04-25T14:37:40.685Z,24.67
2019-04-25T14:40:10.085Z,24.86
2019-04-25T14:42:40.971Z,24.70
2019-04-25T14:45:13.604Z,24.74
2019-04-25T14:47:41.992Z,24.66
2019-04-25T14:50:12.963Z,24.52
2019-04-25T14:52:41.357Z,24.61
2019-04-25T14:55:33.751Z,24.69
2019-04-25T14:58:04.185Z,24.33
2019-04-25T15:00:42.960Z,24.54
2019-04-25T15:03:15.495Z,24.51
2019-04-25T15:05:44.138Z,24.52
2019-04-25T15:08:12.519Z,24.39
2019-04-25T15:10:44.694Z,24.73
2019-04-25T15:13:13.140Z,24.48
2019-04-25T15:15:45.603Z,24.68
2019-04-25T15:18:15.130Z,24.79
2019-04-25T15:20:46.103Z,24.60
2019-04-25T15:23:14.495Z,24.53
2019-04-25T15:25:42.880Z,24.50
2019-04-25T15:28:14.880Z,24.39
2019-04-25T15:30:46.036Z,24.53
2019-04-25T15:33:14.523Z,24.60
2019-04-25T15:35:59.301Z,24.32
2019-04-25T15:38:38.189Z,24.41
2019-04-25T15:41:08.559Z,24.18
2019-04-25T15:43:54.977Z,23.94
2019-04-25T15:46:32.772Z,24.11
2019-04-25T15:49:03.903Z,24.13
2019-04-25T15:51:32.719Z,24.23
2019-04-25T15:54:01.177Z,24.07
2019-04-25T15:56:30.616Z,23.78
2019-04-25T15:58:58.924Z,23.64
2019-04-25T16:01:30.273Z,23.67
2019-04-25T16:04:01.216Z,23.71
2019-04-25T16:06:31.652Z,23.78
2019-04-25T16:09:00.202Z,23.51
2019-04-25T16:11:28.673Z,23.60
2019-04-25T16:14:02.085Z,23.61
2019-04-25T16:16:30.542Z,23.49
2019-04-25T16:19:01.512Z,23.54
2019-04-25T16:21:33.883Z,23.55
2019-04-25T16:24:02.267Z,23.28
2019-04-25T16:26:31.459Z,23.23
2019-04-25T16:28:59.979Z,23.18
2019-04-25T16:31:29.235Z,23.22
2019-04-25T16:33:57.717Z,23.17
2019-04-25T16:36:26.132Z,23.04
2019-04-25T16:38:54.559Z,22.99
2019-04-25T16:41:23.722Z,23.01
2019-04-25T16:43:53.745Z,23.02
2019-04-25T16:46:23.337Z,23.01
2019-04-25T16:48:51.803Z,22.92
2019-04-25T16:51:20.262Z,22.92
2019-04-25T16:53:48.667Z,22.89
2019-04-25T16:56:18.169Z,22.87
2019-04-25T16:58:46.643Z,22.92
2019-04-25T17:01:15.815Z,22.67
2019-04-25T17:03:44.753Z,22.81
2019-04-25T17:06:13.399Z,22.82
2019-04-25T17:08:47.070Z,22.75
2019-04-25T17:11:15.828Z,22.72
2019-04-25T17:13:45.885Z,22.74
2019-04-25T17:16:21.848Z,22.57
2019-04-25T17:18:57.933Z,22.64
2019-04-25T17:21:36.905Z,22.75
2019-04-25T17:24:28.461Z,22.61
2019-04-25T17:26:56.853Z,22.56
2019-04-25T17:29:25.376Z,22.51
2019-04-25T17:31:58.492Z,22.25
2019-04-25T17:34:35.353Z,22.18
2019-04-25T17:37:11.687Z,22.29
2019-04-25T17:39:42.173Z,22.33
2019-04-25T17:42:10.618Z,22.06
2019-04-25T17:44:39.026Z,22.12
2019-04-25T17:47:07.422Z,22.04
2019-04-25T17:49:36.678Z,21.95
2019-04-25T17:52:05.334Z,21.94
2019-04-25T17:54:34.215Z,21.86
2019-04-25T17:57:02.683Z,21.80
2019-04-25T17:59:32.286Z,21.67
2019-04-25T18:02:01.677Z,21.49
2019-04-25T18:04:30.131Z,21.45
2019-04-25T18:06:58.516Z,21.46
2019-04-25T18:09:26.895Z,21.40
2019-04-25T18:11:55.320Z,21.38
2019-04-25T18:14:23.810Z,21.33
2019-04-25T18:16:52.304Z,21.24
2019-04-25T18:19:25.915Z,21.04
2019-04-25T18:21:55.940Z,21.03
2019-04-25T18:24:41.236Z,20.94
2019-04-25T18:27:20.401Z,20.84
2019-04-25T18:29:48.785Z,20.75
2019-04-25T18:32:17.160Z,20.62
2019-04-25T18:34:59.445Z,20.63
2019-04-25T18:37:29.465Z,20.45
2019-04-25T18:40:08.325Z,20.33
2019-04-25T18:42:38.346Z,20.34
2019-04-25T18:45:08.295Z,20.30
2019-04-25T18:47:36.968Z,20.16
2019-04-25T18:50:08.368Z,20.03
2019-04-25T18:52:45.056Z,19.84
2019-04-25T18:55:17.087Z,19.76
2019-04-25T18:57:48.059Z,19.70
2019-04-25T19:00:30.655Z,19.70
2019-04-25T19:03:22.478Z,19.55
2019-04-25T19:05:47.317Z,19.55
2019-04-25T19:08:15.717Z,19.37
2019-04-25T19:10:45.038Z,19.25
2019-04-25T19:13:13.651Z,19.12
2019-04-25T19:15:43.006Z,19.14
2019-04-25T19:18:11.514Z,19.05
2019-04-25T19:20:40.033Z,18.88
2019-04-25T19:23:08.469Z,18.89
2019-04-25T19:25:36.881Z,18.82
2019-04-25T19:28:05.264Z,18.74
2019-04-25T19:30:33.735Z,18.64
2019-04-25T19:33:02.113Z,18.75
2019-04-25T19:35:30.517Z,18.67
2019-04-25T19:37:58.910Z,18.64
2019-04-25T19:40:30.344Z,18.54
2019-04-25T19:43:06.488Z,18.48
2019-04-25T19:45:34.881Z,18.47
2019-04-25T19:48:03.266Z,18.50
2019-04-25T19:50:31.676Z,18.31
2019-04-25T19:53:00.080Z,18.30
2019-04-25T19:55:28.484Z,18.21
2019-04-25T19:57:56.909Z,18.15
2019-04-25T20:00:25.304Z,18.01
2019-04-25T20:03:07.389Z,18.08
2019-04-25T20:05:44.177Z,17.97
2019-04-25T20:08:32.321Z,17.90
2019-04-25T20:11:11.097Z,17.87
2019-04-25T20:13:39.497Z,17.83
2019-04-25T20:16:07.879Z,17.70
2019-04-25T20:18:36.289Z,17.65
2019-04-25T20:21:04.689Z,17.61
2019-04-25T20:23:33.071Z,17.51
2019-04-25T20:26:01.478Z,17.51
2019-04-25T20:28:29.893Z,17.44
2019-04-25T20:30:58.271Z,17.15
2019-04-25T20:33:26.785Z,16.95
2019-04-25T20:35:55.326Z,16.84
2019-04-25T20:38:27.112Z,16.76
2019-04-25T20:40:56.509Z,16.66
2019-04-25T20:43:24.878Z,16.65
2019-04-25T20:45:54.401Z,16.55
2019-04-25T20:48:34.908Z,16.50
2019-04-25T20:51:03.376Z,16.52
2019-04-25T20:53:31.768Z,16.40
2019-04-25T20:56:00.155Z,16.38
2019-04-25T20:58:28.613Z,16.40
2019-04-25T21:00:58.607Z,16.28
2019-04-25T21:03:27.012Z,16.20
2019-04-25T21:06:00.552Z,16.20
2019-04-25T21:08:28.971Z,16.25
2019-04-25T21:10:58.932Z,16.14
2019-04-25T21:13:29.104Z,16.03
2019-04-25T21:16:15.346Z,16.30
2019-04-25T21:18:45.630Z,16.26
2019-04-25T21:21:14.066Z,16.33
2019-04-25T21:23:42.791Z,16.33
2019-04-25T21:26:11.300Z,16.34
2019-04-25T21:28:40.056Z,16.26
2019-04-25T21:31:09.015Z,16.23
2019-04-25T21:33:37.581Z,16.20
2019-04-25T21:36:07.354Z,16.14
2019-04-25T21:38:36.068Z,16.26
2019-04-25T21:41:09.443Z,16.28
2019-04-25T21:43:45.903Z,16.38
2019-04-25T21:46:14.687Z,16.43
2019-04-25T21:48:43.347Z,16.39
2019-04-25T21:51:30.654Z,16.53
2019-04-25T21:54:05.004Z,16.44
2019-04-25T21:56:33.594Z,16.49
2019-04-25T21:59:02.092Z,16.43
2019-04-25T22:01:35.025Z,16.46
2019-04-25T22:04:03.702Z,16.43
2019-04-25T22:06:33.619Z,16.60
2019-04-25T22:09:02.981Z,16.58
2019-04-25T22:11:31.808Z,16.68
2019-04-25T22:14:01.374Z,16.57
2019-04-25T22:16:30.224Z,16.60
2019-04-25T22:18:59.873Z,16.61
2019-04-25T22:21:37.806Z,16.51
2019-04-25T22:24:08.674Z,16.46
2019-04-25T22:26:28.809Z,16.42
2019-04-25T22:28:57.825Z,16.42
2019-04-25T22:31:41.110Z,16.27
2019-04-25T22:34:11.465Z,16.28
2019-04-25T22:36:42.540Z,16.37
2019-04-25T22:39:11.774Z,16.37
2019-04-25T22:41:47.205Z,16.22
2019-04-25T22:44:16.072Z,16.28
2019-04-25T22:46:44.932Z,16.20
2019-04-25T22:49:13.299Z,16.13
2019-04-25T22:51:41.705Z,16.16
2019-04-25T22:54:10.355Z,16.08
2019-04-25T22:56:38.788Z,15.94
2019-04-25T22:59:07.660Z,15.89
2019-04-25T23:01:46.570Z,15.95
2019-04-25T23:04:34.750Z,15.81
2019-04-25T23:07:04.084Z,15.76
2019-04-25T23:09:34.133Z,15.74
2019-04-25T23:12:03.821Z,15.65
2019-04-25T23:14:33.014Z,15.77
2019-04-25T23:17:01.604Z,15.72
2019-04-25T23:19:31.278Z,15.79
2019-04-25T23:22:03.087Z,15.81
2019-04-25T23:24:38.269Z,15.72
2019-04-25T23:27:08.562Z,15.72
2019-04-25T23:29:37.752Z,15.75
2019-04-25T23:32:06.806Z,15.71
2019-04-25T23:34:35.264Z,15.71
2019-04-25T23:37:04.725Z,15.71
2019-04-25T23:39:34.391Z,15.80
2019-04-25T23:42:03.017Z,15.76
2019-04-25T23:44:31.417Z,15.74
2019-04-25T23:46:59.918Z,15.65
2019-04-25T23:49:28.322Z,15.72
2019-04-25T23:51:56.995Z,15.73
2019-04-25T23:54:25.549Z,15.65
2019-04-25T23:56:54.243Z,15.75
2019-04-25T23:59:22.634Z,15.90
